AirNav   ATP
 
 1413 users online  

KDRP Delta Regional Airport
Colt, Arkansas, USA


FAA INFORMATION EFFECTIVE 01 FEBRUARY 2018

Location

FAA Identifier: DRP
Lat/Long: 35-07-12.2000N / 090-49-35.4000W
35-07.203333N / 090-49.590000W
35.1200556 / -90.8265000
(estimated)
Elevation: 239 ft. / 72.8 m (surveyed)
Variation: 01W (2015)
From city: 1 mile SW of COLT, AR
Time zone: UTC -6 (UTC -5 during Daylight Saving Time)
Zip code: 72326

Airport Operations

Airport use: Open to the public
Activation date: 04/2014
Control tower: no
ARTCC: MEMPHIS CENTER
FSS: JONESBORO FLIGHT SERVICE STATION
NOTAMs facility: JBR (NOTAM-D service available)
Attendance: UNATNDD
Wind indicator: lighted
Segmented circle: yes
Lights: ACTVT HIRL RY 18/36; REIL RYS 18 & 36 - CTAF. PAPI RYS 18 & 36 OPERS CONTINUOUSLY.
Beacon: white-green (lighted land airport)
Operates sunset to sunrise.

Airport Communications

CTAF/UNICOM: 123.0
  • APCH/DEP SVC PRVDD BY MEMPHIS ARTCC ON FREQS 135.3/335.8 (BRINKLEY RCAG).

Nearby radio navigation aids

VOR radial/distance  VOR name  Freq  Var
GQEr227/21.8GILMORE VOR/DME113.0004E
UJMr346/33.5MARVELL VOR/DME109.6001E

Airport Services

Fuel available: 100LL
FUEL AVBL SELF SERVE AFT HRS WITH CREDIT CARD
Parking: tiedowns

Runway Information

Runway 18/36

Dimensions: 5003 x 75 ft. / 1525 x 23 m
Surface: asphalt, in good condition
Weight bearing capacity: 
Single wheel: 30.0
Runway edge lights: high intensity
RUNWAY 18  RUNWAY 36
Latitude: 35-07.615722N35-06.791037N
Longitude: 090-49.584015W090-49.595965W
Elevation: 239.0 ft.229.0 ft.
Traffic pattern: leftleft
Runway heading: 182 magnetic, 181 true002 magnetic, 001 true
Markings: precision, in good conditionprecision, in good condition
Visual slope indicator: 2-light PAPI on left (3.00 degrees glide path)2-light PAPI on left (3.00 degrees glide path)
Runway end identifier lights: yesyes
Touchdown point: yes, no lightsyes, no lights

Airport Ownership and Management from official FAA records

Ownership: Publicly-owned
Owner: DELTA REGIONAL AIRPORT AUTHORITY
21 CR 703
WYNNE, AR 72396
Phone 870-208-6607
Manager: JOHN KERR
21 CR 703
WYNNE, AR 72396
Phone 870-208-6607

Airport Operational Statistics

Aircraft based on the field: 7
Single engine airplanes: 6
Multi engine airplanes: 1
    
Aircraft operations: avg 40/week *
86% local general aviation
14% transient general aviation
* for 12-month period ending 30 April 2017

Instrument Procedures

NOTE: All procedures below are presented as PDF files. If you need a reader for these files, you should download the free Adobe Reader.

NOT FOR NAVIGATION. Please procure official charts for flight.
FAA instrument procedures published for use between 1 February 2018 at 0901Z and 1 March 2018 at 0900Z.

 
IAPs - Instrument Approach Procedures
RNAV (GPS) RWY 18   download (166KB)
RNAV (GPS) RWY 36   download (163KB)
NOTE: Special Take-Off Minimums/Departure Procedures apply   download

Other nearby airports with instrument procedures:

6M7 - Marianna/Lee County Airport-Steve Edwards Field (20 nm S)
M36 - Frank Federer Memorial Airport (22 nm SW)
M60 - Woodruff County Airport (24 nm NW)
KAWM - West Memphis Municipal Airport (29 nm E)
KHEE - Thompson-Robbins Airport (33 nm S)
 
Loc | Ops | Rwys | IFR | FBO | Links
Com | Nav | Svcs | Stats | Notes

Fly Arkansas
AirBoss

 
Aerial photo
No photo
 
Airport distance calculator
Flying to Delta Regional Airport? Find the distance to fly.

From to KDRP

Sunrise and sunset
Times for 19-Feb-2018
 Local
(UTC-6)
 Zulu
(UTC)
Morning civil twilight06:2012:20
Sunrise06:4612:46
Sunset17:4823:48
Evening civil twilight18:1400:14

Current date and time
Zulu (UTC)  19-Feb-2018 18:15:00
Local (UTC-6)  19-Feb-2018 12:15:00
 
METAR
KAWM 
29nm E 
191753Z AUTO 19018G25KT 10SM OVC021 21/18 A3005 RMK AO2 PK WND 18026/1723 SLP174 T02060178 10206 20167 58009
KUTA 
35nm SE 
191755Z AUTO 18014G24KT 10SM 21/17 A3008 RMK AO2 TSNO
KM19 
35nm NW 
191756Z AUTO 20021G25KT 10SM 21/16 A3002 RMK AO2 SLP171 T02060161 10206 20144 58005 $
KMEM 
42nm E 
191754Z 19019G27KT 10SM SCT027 BKN250 23/16 A3007 RMK AO2 PK WND 18027/1748 SLP181 T02280161 10228 20150 58009
KJBR 
44nm N 
191753Z AUTO 19019G27KT 10SM FEW016 BKN032 BKN085 21/18 A3003 RMK AO2 PK WND 19028/1731 SLP166 T02060178 10206 20139 58007 $
KSRC 
45nm W 
191756Z AUTO 19017G22KT 10SM OVC028 22/17 A3000 RMK AO2 PK WND 20026/1718 SLP169 6//// T02220172 10228 20150 58007
KSGT 
48nm SW 
191756Z AUTO 17016KT 10SM SCT018 BKN023 BKN028 22/17 A3004 RMK AO2 SLP174 T02170172 10217 20161 58004
KNQA 
49nm E 
191750Z 18010G19KT 10SM BKN025 BKN250 22/16 A3006
TAF
KMEM 
42nm E 
191741Z 1918/2024 19015G25KT P6SM BKN035 BKN200 FM192200 17013G20KT P6SM SCT050 OVC200 FM201200 18015G23KT P6SM BKN025 BKN200 FM201600 18018G25KT P6SM BKN035 BKN200
KJBR 
44nm N 
191741Z 1918/2018 19017G25KT P6SM SCT025 BKN040 FM191900 19017G25KT P6SM BKN035 BKN200 FM192300 17013G20KT P6SM BKN040 BKN200 FM200500 18013G20KT P6SM VCSH BKN030 OVC080
NOTAMs
Click for the latest NOTAMs
NOTAMs are issued by the DoD/FAA and will open in a separate window not controlled by AirNav.

 

 
 

FBO, Fuel Providers, and Aircraft Ground Support

  
 Business Name 
 
 Contact 
 
 Services / Description 
 
Fuel Prices
 
Comments
  
Delta Regional Airport 870-208-6607
no information available

If you are affiliated with Delta Regional Airport and would like to show here your services, contact info, web link, logo, and more, click here
100LL
SS $4.09 
 Updated 14-Feb-2018
 
   write
SS=Self service
Update Fuel Prices
 

Would you like to see your business listed on this page?

 If your business provides an interesting product or service to pilots, flight crews, aircraft, or users of the Delta Regional Airport, you should consider listing it here.  To start the listing process, click on the button below
 
Add a business
 

Other Pages about Delta Regional Airport

Update a link
 
Copyright © AirNav, LLC. All rights reserved. Privacy Policy  Contact